»·PEaware :: N6233G KSEE-KSBD

N6233G :: KSEE-KSBD

FLIGHT INFORMATION

Flight Status: Arrived
Operator: Privately registered:
United States
More flights under this callsign
Pilot: Mark B. (9455)
Aircraft: BEECH AIRCRAFT DEBONAIR BONANZA
(BE33)
More flights by this aircraft type
Origin: KSEE Gillespie
United States
Destination: KSBD San Bernardino Intl
United States
More flights between these airports :: More routes between these airports
Route: +OCN V23 DANAH V363 POXKU V8 PDZ
File this flight plan on PilotEdge
Remarks: TEC Route SANP20
Altitude:
(Current/Filed)
7,000ft
Speed:
(Current/Filed)
160kts
Departed: 19-Apr-20 06:18 PM
Arrived: 19-Apr-20 07:15 PM
Distance/Time
Traveled:
77nm/0:57
Distance/Time
To Go:
Arrived

Flight Plot

Page will automatically refresh every two minutes.


Map Options




Map Legend


Flown Route
Filed Route
Departure Airport
Arrival Airport
Navaid (VOR, NDB)
Fix

Horizontal Profiles

Position Reports

Time Latitude Longitude Heading Altitude Ground
Speed
19-Apr-20 17:50 32.824798 -116.969713 14 378ft 0kts
19-Apr-20 17:51 32.824798 -116.969713 14 378ft 0kts
19-Apr-20 17:52 32.824798 -116.969713 14 378ft 0kts
19-Apr-20 17:53 32.824798 -116.969713 14 378ft 0kts
19-Apr-20 17:54 32.824798 -116.969713 14 378ft 0kts
19-Apr-20 17:55 32.824798 -116.969713 14 378ft 0kts
19-Apr-20 17:56 32.824798 -116.969713 14 378ft 0kts
19-Apr-20 17:57 32.824798 -116.969713 14 378ft 0kts
19-Apr-20 17:58 32.824798 -116.969713 14 378ft 0kts
19-Apr-20 17:59 32.824798 -116.969713 14 378ft 0kts
19-Apr-20 18:00 32.824798 -116.969713 14 378ft 0kts
19-Apr-20 18:01 32.824798 -116.969713 14 378ft 0kts
19-Apr-20 18:02 32.824798 -116.969713 14 378ft 0kts
19-Apr-20 18:03 32.824798 -116.969713 14 378ft 0kts
19-Apr-20 18:04 32.824798 -116.969713 14 378ft 0kts
19-Apr-20 18:05 32.824798 -116.969713 14 378ft 0kts
19-Apr-20 18:06 32.824798 -116.969713 14 378ft 0kts
19-Apr-20 18:07 32.824798 -116.969713 14 378ft 0kts
19-Apr-20 18:08 32.824798 -116.969713 14 378ft 0kts
19-Apr-20 18:09 32.824798 -116.969713 14 378ft 0kts
19-Apr-20 18:10 32.824812 -116.968626 104 380ft 11kts
19-Apr-20 18:11 32.824861 -116.965582 101 387ft 9kts
19-Apr-20 18:12 32.825123 -116.964020 353 392ft 0kts
19-Apr-20 18:13 32.825123 -116.964020 353 392ft 0kts
19-Apr-20 18:14 32.825123 -116.964020 353 392ft 0kts
19-Apr-20 18:15 32.825777 -116.964337 345 392ft 0kts
19-Apr-20 18:16 32.825917 -116.964390 340 392ft 7kts
19-Apr-20 18:17 32.828692 -116.976144 284 506ft 88kts
19-Apr-20 18:18 32.836647 -117.000460 322 1511ft 90kts
19-Apr-20 18:19 32.859019 -117.008600 350 2504ft 91kts
19-Apr-20 18:20 32.883952 -117.007964 358 3501ft 93kts
19-Apr-20 18:21 32.906718 -117.011423 353 4280ft 102kts
19-Apr-20 18:22 32.928761 -117.015268 330 5001ft 106kts
19-Apr-20 18:23 32.942146 -117.031289 312 5695ft 96kts
19-Apr-20 18:24 32.958913 -117.051239 314 5929ft 136kts
19-Apr-20 18:25 32.983826 -117.083690 312 5921ft 169kts
19-Apr-20 18:26 33.011076 -117.120085 311 5915ft 174kts
19-Apr-20 18:27 33.037214 -117.154704 311 5915ft 176kts
19-Apr-20 18:28 33.061542 -117.187210 311 5915ft 177kts
19-Apr-20 18:29 33.084148 -117.217431 311 5914ft 177kts
19-Apr-20 18:30 33.106029 -117.246683 311 5914ft 178kts
19-Apr-20 18:31 33.128925 -117.276320 312 5914ft 178kts
19-Apr-20 18:32 33.153408 -117.307928 312 5914ft 177kts
19-Apr-20 18:33 33.181931 -117.342192 316 5914ft 177kts
19-Apr-20 18:34 33.209946 -117.374740 315 5914ft 177kts
19-Apr-20 18:35 33.243953 -117.414555 315 5914ft 177kts
19-Apr-20 18:36 33.277544 -117.454416 315 5914ft 177kts
19-Apr-20 18:37 33.308552 -117.491309 315 5914ft 177kts
19-Apr-20 18:38 33.337929 -117.526292 315 5914ft 177kts
19-Apr-20 18:39 33.365846 -117.559567 315 5914ft 177kts
19-Apr-20 18:40 33.391185 -117.589938 315 5914ft 177kts
19-Apr-20 18:41 33.414957 -117.618110 315 5903ft 177kts
19-Apr-20 18:42 33.441085 -117.649307 315 5896ft 177kts
19-Apr-20 18:43 33.467765 -117.681301 315 5896ft 177kts
19-Apr-20 18:44 33.489486 -117.699266 350 5897ft 176kts
19-Apr-20 18:46 33.516542 -117.703328 351 5896ft 177kts
19-Apr-20 18:47 33.543165 -117.707882 352 5896ft 177kts
19-Apr-20 18:48 33.570589 -117.712551 351 5896ft 177kts
19-Apr-20 18:49 33.599175 -117.717384 352 5896ft 177kts
19-Apr-20 18:50 33.627395 -117.721884 352 5896ft 177kts
19-Apr-20 18:51 33.657674 -117.727185 352 5896ft 177kts
19-Apr-20 18:52 33.687389 -117.735417 337 5814ft 181kts
19-Apr-20 18:53 33.713712 -117.747802 339 5623ft 186kts
19-Apr-20 18:54 33.758127 -117.768682 338 5325ft 187kts
19-Apr-20 18:55 33.808777 -117.780312 0 5002ft 185kts
19-Apr-20 18:56 33.844582 -117.778106 24 4955ft 179kts
19-Apr-20 18:57 33.863385 -117.742137 72 4936ft 156kts
19-Apr-20 18:58 33.875825 -117.695655 72 4932ft 132kts
19-Apr-20 18:59 33.882580 -117.669361 73 4942ft 128kts
19-Apr-20 19:00 33.888663 -117.644494 73 4942ft 131kts
19-Apr-20 19:01 33.895189 -117.618886 73 4940ft 132kts
19-Apr-20 19:02 33.901734 -117.593534 73 4939ft 129kts
19-Apr-20 19:03 33.915957 -117.572832 43 4932ft 126kts
19-Apr-20 19:03 33.928535 -117.558588 43 4664ft 137kts
19-Apr-20 19:05 33.953057 -117.530906 42 3909ft 135kts
19-Apr-20 19:06 33.978056 -117.499591 48 3344ft 120kts
19-Apr-20 19:06 33.995849 -117.476070 44 3345ft 116kts
19-Apr-20 19:07 34.018169 -117.451579 41 3388ft 111kts
19-Apr-20 19:09 34.041053 -117.417211 64 3293ft 118kts
19-Apr-20 19:09 34.050640 -117.387372 71 3237ft 111kts
19-Apr-20 19:10 34.059864 -117.352425 71 2752ft 121kts
19-Apr-20 19:11 34.070677 -117.319339 70 2158ft 104kts
19-Apr-20 19:12 34.079098 -117.290517 72 1838ft 100kts
19-Apr-20 19:13 34.086860 -117.265407 71 1418ft 100kts
19-Apr-20 19:14 34.093217 -117.242384 39 1098ft 27kts

Navigation Log

Ident Type
Flight plan parsing failed, navigation log unavailable